createdAt,value
2022-12-12T00:00:09.967Z,2.13
2022-12-12T00:02:41.345Z,2.83
2022-12-12T00:05:16.155Z,2.53
2022-12-12T00:07:45.145Z,2.05
2022-12-12T00:10:13.935Z,2.03
2022-12-12T00:12:42.671Z,2.17
2022-12-12T00:15:12.005Z,1.92
2022-12-12T00:17:41.046Z,2.25
2022-12-12T00:20:11.261Z,2.20
2022-12-12T00:22:39.842Z,2.28
2022-12-12T00:25:10.417Z,2.40
2022-12-12T00:27:39.351Z,2.30
2022-12-12T00:30:09.898Z,2.40
2022-12-12T00:32:38.692Z,2.70
2022-12-12T00:35:07.824Z,2.78
2022-12-12T00:37:37.906Z,3.65
2022-12-12T00:40:07.381Z,2.95
2022-12-12T00:42:35.979Z,3.30
2022-12-12T00:45:04.724Z,3.13
2022-12-12T00:47:33.538Z,3.70
2022-12-12T00:50:02.294Z,2.38
2022-12-12T00:52:31.201Z,3.63
2022-12-12T00:55:01.242Z,3.97
2022-12-12T00:57:29.907Z,3.13
2022-12-12T00:59:59.645Z,3.50
2022-12-12T01:02:28.629Z,3.20
2022-12-12T01:04:57.228Z,4.60
2022-12-12T01:07:25.975Z,3.90
2022-12-12T01:09:54.614Z,3.53
2022-12-12T01:12:24.730Z,3.28
2022-12-12T01:14:53.389Z,3.05
2022-12-12T01:17:21.956Z,2.30
2022-12-12T01:19:50.638Z,2.80
2022-12-12T01:22:19.272Z,2.60
2022-12-12T01:24:47.992Z,2.95
2022-12-12T01:27:16.675Z,2.75
2022-12-12T01:29:46.647Z,2.72
2022-12-12T01:32:15.287Z,2.60
2022-12-12T01:34:43.983Z,2.58
2022-12-12T01:37:12.650Z,2.40
2022-12-12T01:39:41.846Z,2.60
2022-12-12T01:42:12.340Z,2.78
2022-12-12T01:44:47.107Z,2.92
2022-12-12T01:47:16.458Z,2.50
2022-12-12T01:49:46.630Z,2.67
2022-12-12T01:52:17.334Z,2.33
2022-12-12T01:54:48.899Z,2.70
2022-12-12T01:57:20.182Z,2.63
2022-12-12T01:59:50.285Z,2.63
2022-12-12T02:02:19.217Z,2.70
2022-12-12T02:04:47.922Z,2.67
2022-12-12T02:07:17.897Z,2.53
2022-12-12T02:09:47.472Z,2.65
2022-12-12T02:12:16.667Z,2.55
2022-12-12T02:14:47.449Z,2.75
2022-12-12T02:17:30.956Z,2.80
2022-12-12T02:20:18.142Z,2.33
2022-12-12T02:23:00.995Z,2.53
2022-12-12T02:25:57.894Z,2.85
2022-12-12T02:28:37.356Z,2.88
2022-12-12T02:31:12.874Z,2.50
2022-12-12T02:33:45.282Z,2.70
2022-12-12T02:36:17.077Z,3.15
2022-12-12T02:38:49.887Z,2.67
2022-12-12T02:41:25.991Z,2.83
2022-12-12T02:44:00.943Z,3.35
2022-12-12T02:46:35.350Z,2.83
2022-12-12T02:49:05.191Z,2.65
2022-12-12T02:51:35.271Z,3.28
2022-12-12T02:54:05.450Z,3.00
2022-12-12T02:56:51.146Z,2.90
2022-12-12T02:59:23.465Z,2.85
2022-12-12T03:01:59.317Z,2.75
2022-12-12T03:04:49.313Z,2.88
2022-12-12T03:07:41.013Z,2.70
2022-12-12T03:10:12.332Z,2.28
2022-12-12T03:12:43.843Z,2.80
2022-12-12T03:15:16.025Z,3.00
2022-12-12T03:17:50.464Z,2.75
2022-12-12T03:20:21.869Z,2.55
2022-12-12T03:22:53.722Z,3.03
2022-12-12T03:25:24.668Z,3.15
2022-12-12T03:28:00.578Z,2.88
2022-12-12T03:30:30.109Z,2.90
2022-12-12T03:33:01.655Z,3.58
2022-12-12T03:35:32.464Z,3.20
2022-12-12T03:38:04.427Z,2.95
2022-12-12T03:40:35.546Z,3.10
2022-12-12T03:43:07.268Z,2.95
2022-12-12T03:45:37.408Z,2.92
2022-12-12T03:48:11.488Z,3.20
2022-12-12T03:50:43.516Z,2.80
2022-12-12T03:53:13.379Z,2.85
2022-12-12T03:55:46.606Z,3.42
2022-12-12T03:58:16.544Z,3.33
2022-12-12T04:00:47.199Z,2.80
2022-12-12T04:03:20.471Z,2.72
2022-12-12T04:06:05.091Z,3.42
2022-12-12T04:08:34.210Z,3.22
2022-12-12T04:11:22.725Z,3.10
2022-12-12T04:13:57.776Z,3.17
2022-12-12T04:16:29.269Z,2.67
2022-12-12T04:19:01.173Z,2.78
2022-12-12T04:21:52.776Z,3.10
2022-12-12T04:24:25.187Z,2.60
2022-12-12T04:26:55.666Z,3.35
2022-12-12T04:29:28.418Z,3.15
2022-12-12T04:32:00.719Z,3.03
2022-12-12T04:34:35.158Z,3.17
2022-12-12T04:37:04.407Z,2.97
2022-12-12T04:39:33.539Z,3.13
2022-12-12T04:42:02.991Z,2.97
2022-12-12T04:44:32.355Z,2.95
2022-12-12T04:47:01.504Z,2.97
2022-12-12T04:49:33.286Z,3.28
2022-12-12T04:52:05.080Z,3.13
2022-12-12T04:54:37.030Z,3.35
2022-12-12T04:57:07.539Z,3.08
2022-12-12T04:59:36.178Z,2.70
2022-12-12T05:02:09.815Z,3.28
2022-12-12T05:04:43.298Z,3.13
2022-12-12T05:07:17.031Z,2.85
2022-12-12T05:09:45.819Z,3.85
2022-12-12T05:12:16.793Z,3.53
2022-12-12T05:14:45.483Z,3.72
2022-12-12T05:17:16.286Z,2.95
2022-12-12T05:19:44.864Z,3.28
2022-12-12T05:22:14.792Z,3.47
2022-12-12T05:24:43.524Z,2.90
2022-12-12T05:27:13.342Z,2.75
2022-12-12T05:29:42.075Z,3.42
2022-12-12T05:32:10.710Z,3.90
2022-12-12T05:34:39.398Z,3.42
2022-12-12T05:37:08.058Z,3.30
2022-12-12T05:39:38.732Z,3.80
2022-12-12T05:42:07.458Z,3.90
2022-12-12T05:44:36.083Z,3.08
2022-12-12T05:47:04.719Z,3.00
2022-12-12T05:49:33.447Z,3.97
2022-12-12T05:52:02.114Z,3.50
2022-12-12T05:54:30.815Z,3.75
2022-12-12T05:57:00.857Z,3.20
2022-12-12T05:59:31.059Z,3.30
2022-12-12T06:01:59.921Z,3.00
2022-12-12T06:04:28.645Z,3.10
2022-12-12T06:06:57.506Z,3.40
2022-12-12T06:09:26.254Z,2.92
2022-12-12T06:11:55.235Z,3.10
2022-12-12T06:14:25.587Z,3.00
2022-12-12T06:16:54.183Z,2.40
2022-12-12T06:19:23.195Z,2.40
2022-12-12T06:21:51.841Z,2.95
2022-12-12T06:24:20.552Z,3.40
2022-12-12T06:26:49.312Z,3.95
2022-12-12T06:29:17.966Z,5.38
2022-12-12T06:31:48.431Z,4.43
2022-12-12T06:34:17.161Z,4.43
2022-12-12T06:36:45.807Z,5.20
2022-12-12T06:39:14.745Z,4.25
2022-12-12T06:41:43.470Z,4.15
2022-12-12T06:44:12.159Z,4.85
2022-12-12T06:46:40.982Z,4.78
2022-12-12T06:49:11.087Z,4.88
2022-12-12T06:51:44.438Z,4.45
2022-12-12T06:54:13.534Z,4.50
2022-12-12T06:56:47.983Z,4.90
2022-12-12T06:59:17.269Z,4.13
2022-12-12T07:01:46.000Z,4.03
2022-12-12T07:04:16.611Z,3.60
2022-12-12T07:06:45.430Z,5.47
2022-12-12T07:09:14.084Z,5.13
2022-12-12T07:11:42.775Z,5.22
2022-12-12T07:14:11.888Z,4.15
2022-12-12T07:16:40.639Z,4.43
2022-12-12T07:19:09.527Z,4.57
2022-12-12T07:21:40.274Z,4.60
2022-12-12T07:24:08.982Z,4.53
2022-12-12T07:26:37.600Z,5.45
2022-12-12T07:29:06.296Z,5.82
2022-12-12T07:31:35.058Z,6.28
2022-12-12T07:34:03.785Z,5.15
2022-12-12T07:36:32.537Z,4.50
2022-12-12T07:39:02.591Z,4.22
2022-12-12T07:41:31.263Z,4.25
2022-12-12T07:44:02.213Z,4.30
2022-12-12T07:46:31.064Z,4.78
2022-12-12T07:48:59.812Z,5.88
2022-12-12T07:51:28.440Z,4.90
2022-12-12T07:53:57.383Z,4.22
2022-12-12T07:56:27.488Z,3.83
2022-12-12T07:58:56.423Z,4.28
2022-12-12T08:01:26.345Z,4.45
2022-12-12T08:03:55.732Z,4.03
2022-12-12T08:06:24.986Z,3.72
2022-12-12T08:08:54.121Z,3.85
2022-12-12T08:11:23.626Z,4.82
2022-12-12T08:13:54.064Z,4.40
2022-12-12T08:16:23.807Z,4.47
2022-12-12T08:18:54.846Z,3.83
2022-12-12T08:21:26.131Z,3.90
2022-12-12T08:23:57.270Z,4.38
2022-12-12T08:26:26.099Z,4.28
2022-12-12T08:28:56.108Z,4.20
2022-12-12T08:31:25.158Z,3.80
2022-12-12T08:33:54.393Z,3.78
2022-12-12T08:36:24.074Z,3.13
2022-12-12T08:38:53.213Z,3.03
2022-12-12T08:41:22.010Z,3.40
2022-12-12T08:43:51.391Z,3.85
2022-12-12T08:46:21.965Z,3.55
2022-12-12T08:48:50.742Z,4.10
2022-12-12T08:51:19.736Z,3.50
2022-12-12T08:53:48.562Z,3.38
2022-12-12T08:56:17.935Z,3.47
2022-12-12T08:58:46.630Z,3.25
2022-12-12T09:01:16.956Z,3.20
2022-12-12T09:03:47.817Z,3.35
2022-12-12T09:06:16.803Z,3.00
2022-12-12T09:08:46.971Z,3.03
2022-12-12T09:11:16.022Z,3.50
2022-12-12T09:13:44.846Z,3.67
2022-12-12T09:16:13.959Z,2.92
2022-12-12T09:18:48.566Z,3.42
2022-12-12T09:21:20.106Z,3.42
2022-12-12T09:23:48.752Z,4.40
2022-12-12T09:26:18.314Z,4.93
2022-12-12T09:28:47.110Z,4.05
2022-12-12T09:31:15.822Z,2.70
2022-12-12T09:33:44.660Z,3.33
2022-12-12T09:36:13.981Z,4.43
2022-12-12T09:38:44.735Z,3.15
2022-12-12T09:41:14.480Z,3.30
2022-12-12T09:43:47.483Z,3.53
2022-12-12T09:46:17.842Z,3.60
2022-12-12T09:48:47.575Z,3.78
2022-12-12T09:51:16.304Z,3.17
2022-12-12T09:53:47.423Z,3.40
2022-12-12T09:56:20.624Z,4.40
2022-12-12T09:58:55.358Z,3.83
2022-12-12T10:01:28.599Z,3.35
2022-12-12T10:04:03.163Z,4.28
2022-12-12T10:06:37.825Z,3.53
2022-12-12T10:09:12.407Z,2.95
2022-12-12T10:11:51.353Z,3.47
2022-12-12T10:14:29.239Z,3.22
2022-12-12T10:16:59.389Z,2.97
2022-12-12T10:19:29.648Z,3.00
2022-12-12T10:22:00.480Z,2.83
2022-12-12T10:24:35.139Z,3.13
2022-12-12T10:27:10.449Z,3.00
2022-12-12T10:29:41.513Z,2.60
2022-12-12T10:32:13.689Z,2.67
2022-12-12T10:34:47.638Z,2.70
2022-12-12T10:37:31.219Z,2.80
2022-12-12T10:40:07.213Z,3.33
2022-12-12T10:42:39.926Z,2.92
2022-12-12T10:45:29.706Z,3.13
2022-12-12T10:47:58.540Z,2.95
2022-12-12T10:50:29.119Z,2.75
2022-12-12T10:52:57.752Z,3.08
2022-12-12T10:55:34.918Z,2.95
2022-12-12T10:58:05.323Z,2.78
2022-12-12T11:00:34.739Z,2.70
2022-12-12T11:03:13.490Z,2.95
2022-12-12T11:05:43.381Z,2.83
2022-12-12T11:08:21.409Z,3.00
2022-12-12T11:11:02.526Z,3.10
2022-12-12T11:13:31.786Z,3.42
2022-12-12T11:16:02.065Z,2.60
2022-12-12T11:18:31.256Z,3.40
2022-12-12T11:21:05.333Z,3.28
2022-12-12T11:23:34.829Z,2.97
2022-12-12T11:26:06.060Z,3.22
2022-12-12T11:28:36.310Z,3.38
2022-12-12T11:31:06.863Z,3.47
2022-12-12T11:33:36.971Z,3.65
2022-12-12T11:36:06.926Z,3.08
2022-12-12T11:38:39.552Z,2.97
2022-12-12T11:41:10.867Z,3.45
2022-12-12T11:43:39.832Z,3.22
2022-12-12T11:46:10.207Z,3.20
2022-12-12T11:48:43.710Z,3.45
2022-12-12T11:51:12.478Z,3.00
2022-12-12T11:53:41.802Z,3.17
2022-12-12T11:56:18.098Z,3.10
2022-12-12T11:58:48.235Z,3.05
2022-12-12T12:01:21.208Z,3.08
2022-12-12T12:03:57.692Z,3.25
2022-12-12T12:06:31.893Z,3.17
2022-12-12T12:09:12.487Z,3.28
2022-12-12T12:11:45.659Z,2.72
2022-12-12T12:14:26.139Z,3.38
2022-12-12T12:16:58.597Z,3.58
2022-12-12T12:19:31.574Z,3.75
2022-12-12T12:22:06.167Z,3.47
2022-12-12T12:24:46.600Z,3.95
2022-12-12T12:27:19.088Z,2.83
2022-12-12T12:30:17.880Z,2.90
2022-12-12T12:32:52.595Z,3.03
2022-12-12T12:35:26.919Z,2.80
2022-12-12T12:37:59.697Z,2.92
2022-12-12T12:40:35.577Z,2.80
2022-12-12T12:43:11.707Z,2.88
2022-12-12T12:45:46.575Z,2.85
2022-12-12T12:48:19.504Z,3.20
2022-12-12T12:50:50.172Z,3.05
2022-12-12T12:53:24.303Z,2.67
2022-12-12T12:55:53.960Z,2.72
2022-12-12T12:58:26.335Z,3.00
2022-12-12T13:00:57.680Z,2.45
2022-12-12T13:03:29.431Z,2.75
2022-12-12T13:05:59.873Z,2.80
2022-12-12T13:08:30.079Z,2.50
2022-12-12T13:11:01.782Z,2.50
2022-12-12T13:13:32.928Z,2.42
2022-12-12T13:16:03.199Z,2.45
2022-12-12T13:18:44.402Z,2.50
2022-12-12T13:21:16.558Z,2.40
2022-12-12T13:23:53.331Z,2.53
2022-12-12T13:26:25.140Z,2.20
2022-12-12T13:28:56.859Z,2.47
2022-12-12T13:31:35.209Z,2.40
2022-12-12T13:34:05.228Z,2.58
2022-12-12T13:36:35.443Z,2.38
2022-12-12T13:39:05.538Z,2.38
2022-12-12T13:41:58.261Z,2.60
2022-12-12T13:44:38.977Z,2.58
2022-12-12T13:47:13.224Z,2.75
2022-12-12T13:49:49.919Z,2.67
2022-12-12T13:52:23.968Z,1.98
2022-12-12T13:54:54.803Z,2.13
2022-12-12T13:57:28.255Z,2.15
2022-12-12T14:00:21.059Z,2.17
2022-12-12T14:03:03.997Z,2.20
2022-12-12T14:05:34.946Z,2.45
2022-12-12T14:08:09.328Z,2.25
2022-12-12T14:10:40.516Z,2.13
2022-12-12T14:13:20.183Z,2.53
2022-12-12T14:15:51.423Z,2.20
2022-12-12T14:18:24.703Z,2.50
2022-12-12T14:21:00.355Z,2.20
2022-12-12T14:23:30.663Z,2.20
2022-12-12T14:26:00.784Z,2.08
2022-12-12T14:28:31.220Z,2.38
2022-12-12T14:31:05.100Z,2.47
2022-12-12T14:33:48.551Z,1.77
2022-12-12T14:36:28.952Z,2.05
2022-12-12T14:39:05.418Z,2.22
2022-12-12T14:41:36.171Z,1.98
2022-12-12T14:44:36.497Z,2.20
2022-12-12T14:46:59.511Z,2.03
2022-12-12T14:49:28.207Z,2.80
2022-12-12T14:51:59.113Z,2.00
2022-12-12T14:54:28.379Z,1.60
2022-12-12T14:56:58.981Z,2.20
2022-12-12T14:59:29.023Z,2.13
2022-12-12T15:02:01.504Z,1.80
2022-12-12T15:04:31.908Z,2.13
2022-12-12T15:07:00.954Z,2.35
2022-12-12T15:09:30.528Z,2.58
2022-12-12T15:12:08.023Z,2.00
2022-12-12T15:14:36.635Z,1.95
2022-12-12T15:17:08.483Z,2.10
2022-12-12T15:19:39.464Z,1.75
2022-12-12T15:22:12.147Z,1.83
2022-12-12T15:24:41.431Z,2.20
2022-12-12T15:27:10.368Z,1.80
2022-12-12T15:29:39.644Z,1.95
2022-12-12T15:32:11.078Z,2.10
2022-12-12T15:34:40.819Z,2.88
2022-12-12T15:37:13.399Z,1.85
2022-12-12T15:39:42.029Z,1.92
2022-12-12T15:42:11.957Z,2.13
2022-12-12T15:44:43.916Z,2.28
2022-12-12T15:47:15.377Z,2.00
2022-12-12T15:49:44.980Z,2.30
2022-12-12T15:52:14.480Z,1.65
2022-12-12T15:54:50.541Z,1.90
2022-12-12T15:57:20.562Z,2.00
2022-12-12T15:59:53.803Z,2.10
2022-12-12T16:02:28.806Z,2.15
2022-12-12T16:04:58.901Z,2.15
2022-12-12T16:07:27.579Z,2.60
2022-12-12T16:10:00.102Z,2.17
2022-12-12T16:12:47.484Z,2.30
2022-12-12T16:15:20.139Z,2.10
2022-12-12T16:18:00.951Z,2.40
2022-12-12T16:20:30.682Z,2.58
2022-12-12T16:23:10.382Z,1.98
2022-12-12T16:25:39.428Z,1.85
2022-12-12T16:28:23.266Z,1.65
2022-12-12T16:30:55.664Z,1.85
2022-12-12T16:33:34.265Z,1.90
2022-12-12T16:36:03.955Z,1.90
2022-12-12T16:38:32.663Z,1.85
2022-12-12T16:41:02.459Z,2.00
2022-12-12T16:43:31.259Z,1.90
2022-12-12T16:46:00.813Z,2.30
2022-12-12T16:48:33.747Z,2.22
2022-12-12T16:51:05.655Z,2.15
2022-12-12T16:53:35.271Z,2.50
2022-12-12T16:56:04.882Z,3.22
2022-12-12T16:58:34.228Z,2.15
2022-12-12T17:01:03.125Z,2.67
2022-12-12T17:03:32.949Z,1.88
2022-12-12T17:06:02.101Z,1.88
2022-12-12T17:08:32.195Z,2.08
2022-12-12T17:11:10.287Z,1.65
2022-12-12T17:13:40.158Z,1.80
2022-12-12T17:16:09.084Z,2.70
2022-12-12T17:18:37.771Z,2.17
2022-12-12T17:21:06.639Z,2.65
2022-12-12T17:23:36.696Z,2.60
2022-12-12T17:26:05.634Z,2.58
2022-12-12T17:28:35.188Z,2.40
2022-12-12T17:31:04.320Z,1.70
2022-12-12T17:33:33.003Z,1.95
2022-12-12T17:36:02.313Z,1.90
2022-12-12T17:38:31.389Z,2.33
2022-12-12T17:41:05.114Z,1.58
2022-12-12T17:43:33.786Z,1.95
2022-12-12T17:46:03.563Z,1.80
2022-12-12T17:48:33.834Z,1.33
2022-12-12T17:51:04.170Z,1.60
2022-12-12T17:53:36.676Z,1.70
2022-12-12T17:56:08.653Z,1.50
2022-12-12T17:58:38.002Z,1.60
2022-12-12T18:01:13.495Z,1.30
2022-12-12T18:03:42.487Z,1.75
2022-12-12T18:06:11.517Z,1.38
2022-12-12T18:08:40.456Z,1.50
2022-12-12T18:11:11.431Z,1.50
2022-12-12T18:13:40.683Z,1.40
2022-12-12T18:16:10.307Z,1.70
2022-12-12T18:18:39.376Z,2.13
2022-12-12T18:21:10.538Z,1.73
2022-12-12T18:23:41.649Z,1.48
2022-12-12T18:26:18.602Z,1.60
2022-12-12T18:28:51.000Z,1.38
2022-12-12T18:31:19.685Z,1.70
2022-12-12T18:33:48.538Z,1.83
2022-12-12T18:36:18.540Z,1.80
2022-12-12T18:38:48.009Z,1.85
2022-12-12T18:41:18.856Z,1.65
2022-12-12T18:43:48.074Z,1.83
2022-12-12T18:46:18.373Z,2.55
2022-12-12T18:48:48.251Z,2.20
2022-12-12T18:51:18.102Z,1.90
2022-12-12T18:53:47.158Z,1.80
2022-12-12T18:56:17.207Z,1.77
2022-12-12T18:58:47.207Z,1.50
2022-12-12T19:01:18.730Z,1.52
2022-12-12T19:03:48.104Z,1.50
2022-12-12T19:06:17.456Z,1.77
2022-12-12T19:08:46.262Z,1.20
2022-12-12T19:11:15.582Z,1.52
2022-12-12T19:13:45.007Z,1.50
2022-12-12T19:16:16.277Z,1.73
2022-12-12T19:18:45.750Z,1.50
2022-12-12T19:21:15.696Z,1.60
2022-12-12T19:23:44.605Z,1.40
2022-12-12T19:26:14.667Z,1.55
2022-12-12T19:28:43.307Z,1.90
2022-12-12T19:31:14.854Z,1.70
2022-12-12T19:33:45.255Z,3.72
2022-12-12T19:36:14.833Z,2.22
2022-12-12T19:38:43.512Z,1.70
2022-12-12T19:41:14.036Z,2.08
2022-12-12T19:43:43.343Z,2.13
2022-12-12T19:46:13.316Z,1.73
2022-12-12T19:48:42.082Z,1.40
2022-12-12T19:51:13.515Z,2.13
2022-12-12T19:53:43.688Z,1.50
2022-12-12T19:56:13.363Z,2.30
2022-12-12T19:58:42.495Z,2.00
2022-12-12T20:01:13.433Z,1.70
2022-12-12T20:03:42.722Z,1.80
2022-12-12T20:06:13.619Z,1.50
2022-12-12T20:08:43.104Z,2.42
2022-12-12T20:11:12.225Z,1.40
2022-12-12T20:13:41.396Z,1.50
2022-12-12T20:16:12.542Z,1.55
2022-12-12T20:18:41.703Z,1.58
2022-12-12T20:21:24.681Z,1.20
2022-12-12T20:24:00.355Z,1.50
2022-12-12T20:26:30.105Z,1.73
2022-12-12T20:29:00.632Z,1.50
2022-12-12T20:31:31.235Z,1.58
2022-12-12T20:34:00.443Z,2.03
2022-12-12T20:36:30.245Z,1.42
2022-12-12T20:39:01.292Z,1.52
2022-12-12T20:41:30.747Z,1.40
2022-12-12T20:44:00.398Z,1.30
2022-12-12T20:46:30.437Z,1.20
2022-12-12T20:48:59.641Z,1.50
2022-12-12T20:51:54.596Z,1.20
2022-12-12T20:54:22.425Z,1.50
2022-12-12T20:56:51.327Z,1.20
2022-12-12T20:59:20.034Z,1.38
2022-12-12T21:01:48.802Z,1.77
2022-12-12T21:04:17.558Z,1.27
2022-12-12T21:06:49.907Z,1.17
2022-12-12T21:09:25.052Z,1.40
2022-12-12T21:11:54.976Z,1.25
2022-12-12T21:14:24.374Z,1.60
2022-12-12T21:16:53.492Z,1.50
2022-12-12T21:19:23.376Z,1.48
2022-12-12T21:21:52.295Z,1.60
2022-12-12T21:24:22.868Z,1.50
2022-12-12T21:26:51.613Z,1.65
2022-12-12T21:29:20.397Z,1.20
2022-12-12T21:31:52.044Z,1.23
2022-12-12T21:34:21.630Z,1.20
2022-12-12T21:36:53.308Z,1.83
2022-12-12T21:39:25.062Z,1.38
2022-12-12T21:41:53.711Z,1.08
2022-12-12T21:44:22.954Z,1.50
2022-12-12T21:46:51.736Z,1.17
2022-12-12T21:49:31.051Z,1.17
2022-12-12T21:52:00.903Z,1.70
2022-12-12T21:54:31.651Z,1.30
2022-12-12T21:57:00.920Z,1.20
2022-12-12T21:59:30.110Z,1.33
2022-12-12T22:01:59.700Z,1.13
2022-12-12T22:04:28.536Z,1.10
2022-12-12T22:06:58.230Z,1.30
2022-12-12T22:09:27.603Z,1.17
2022-12-12T22:12:04.036Z,1.20
2022-12-12T22:14:33.783Z,2.00
2022-12-12T22:17:02.639Z,1.25
2022-12-12T22:19:31.445Z,1.38
2022-12-12T22:22:00.354Z,1.20
2022-12-12T22:24:29.054Z,1.20
2022-12-12T22:26:59.105Z,1.83
2022-12-12T22:29:27.821Z,1.20
2022-12-12T22:31:56.510Z,1.27
2022-12-12T22:34:25.835Z,1.20
2022-12-12T22:36:54.968Z,1.00
2022-12-12T22:39:24.424Z,1.50
2022-12-12T22:41:53.311Z,1.27
2022-12-12T22:44:23.999Z,1.00
2022-12-12T22:46:53.419Z,1.50
2022-12-12T22:49:25.871Z,1.40
2022-12-12T22:51:54.850Z,1.35
2022-12-12T22:54:23.621Z,1.20
2022-12-12T22:56:52.360Z,1.20
2022-12-12T22:59:21.282Z,1.20
2022-12-12T23:01:51.287Z,1.38
2022-12-12T23:04:19.959Z,1.27
2022-12-12T23:06:48.552Z,1.50
2022-12-12T23:09:18.455Z,1.48
2022-12-12T23:11:48.328Z,1.00
2022-12-12T23:14:19.482Z,1.20
2022-12-12T23:16:48.094Z,1.30
2022-12-12T23:19:19.449Z,1.63
2022-12-12T23:21:48.010Z,1.00
2022-12-12T23:24:17.023Z,1.35
2022-12-12T23:26:45.884Z,1.40
2022-12-12T23:29:17.012Z,1.30
2022-12-12T23:31:46.102Z,1.20
2022-12-12T23:34:16.084Z,1.63
2022-12-12T23:36:46.279Z,1.40
2022-12-12T23:39:15.713Z,1.50
2022-12-12T23:41:45.696Z,1.15
2022-12-12T23:44:15.253Z,1.10
2022-12-12T23:46:44.650Z,1.35
2022-12-12T23:49:16.160Z,1.00
2022-12-12T23:51:47.114Z,1.20
2022-12-12T23:54:16.544Z,1.20
2022-12-12T23:56:45.689Z,1.10
2022-12-12T23:59:17.931Z,1.90
